Angus, NM

8:15 PM MDT on August 30, 2014 (GMT -0600)
Sierra Blanca Regional | Change Station
CLOSE
Current Station
Airport
Location: Ruidoso,
Elevation: 6811 ft
Nearby Weather Stations

Elev 6811 ft 33.46 °N, 105.53 °W | Updated 20 minutes ago

Clear
Clear
68 °F
Feels Like 68 °F
N
10
Wind Variable Wind from SW

Today
High -- | Low -- °F
--% Chance of Precip.
Yesterday
High -- | Low -- °F
Precip. -- in
6:35 AM 7:30 PM
Waxing Crescent, 26% visible
Pressure 30.23 in
Visibility 10.0 miles
Clouds Clear
Dew Point 39 °F
Humidity 35%
Rainfall 0.00 in
Snow Depth 0 in
UV 0 out of 12
Pollen 9.70 out of 12
Air Quality Not available.
Flu Activity Not available.
METAR KSRR 310155Z AUTO 23009KT 10SM CLR 20/04 A3023 RMK AO2

More Conditions Fewer Conditions

Pressure 30.23 in
Visibility 10.0 miles
Clouds Clear
Dew Point 39 °F
Humidity 35%
Rainfall 0.00 in
Snow Depth 0 in
UV 0 out of 12
Pollen 9.70 out of 12
Air Quality Not available.
Flu Activity Not available.
METAR KSRR 310155Z AUTO 23009KT 10SM CLR 20/04 A3023 RMK AO2

More Conditions Fewer Conditions

10-Day Weather Forecast

Almanac

Astronomy

Aug. 30, 2014 Rise Set
Actual Time 6:35 AM MDT 7:30 PM MDT
Civil Twilight 6:09 AM MDT 7:55 PM MDT
Nautical Twilight 5:39 AM MDT 8:25 PM MDT
Astronomical Twilight 5:08 AM MDT 8:56 PM MDT
Moon 11:09 AM MDT (8/30) 10:22 PM MDT (8/30)
Length of Visible Light 13h 46m
Length of Day
12h 55m
Tomorrow will be 1m 59s shorter.
Waxing Crescent, 26% of the Moon is Illuminated
Today
Waxing Crescent
Sep 2
First Quarter
Sep 8
Full
Sep 15
Last Quarter
Sep 24
New

Today's Extremes

State Highs State Lows

Community

WunderPhotos

Upload Photos

1,748,736 photos uploaded!

Nearby

Snow Depth

Station Depth Elevation
Sierra Blanca 0 in 10280 ft
Wesner Springs 1 in 11120 ft
Santa Fe 0 in 11445 ft
Quemazon 0 in 9500 ft
Silver Creek Divide 19 in 9000 ft

Earthquake Activity

City Distance Mag. Time & Date
No recent earthquake activity has been reported nearby.
Minimum magnitude displayed is 2.5.

Coastal Water Temperatures

Place Temperature
No Stations Reporting

Nearby Weather Stations